Time,TemperatureF,DewpointF,PressureIn,WindDirection,WindDirectionDegrees,WindSpeedMPH,WindSpeedGustMPH,Humidity,HourlyPrecipIn,Conditions,Clouds,dailyrainin,SoftwareType,DateUTC
2013-06-04 00:01:00,59.9,55.7,29.95,WNW,297,0.0,0.0,86,0.00,,,0.00,Wunderground v.1.15,2013-06-04 04:01:00,
2013-06-04 00:06:00,59.8,55.9,29.95,WNW,297,0.0,0.0,87,0.00,,,0.00,Wunderground v.1.15,2013-06-04 04:06:00,
2013-06-04 00:11:00,59.6,55.4,29.96,WNW,297,0.0,0.0,86,0.00,,,0.00,Wunderground v.1.15,2013-06-04 04:11:00,
2013-06-04 00:15:00,59.5,55.3,29.96,WNW,297,0.0,0.0,86,0.00,,,0.00,Wunderground v.1.15,2013-06-04 04:15:00,
2013-06-04 00:20:00,59.4,55.2,29.96,WNW,297,0.0,0.0,86,0.00,,,0.00,Wunderground v.1.15,2013-06-04 04:20:00,
2013-06-04 00:26:00,59.3,55.1,29.96,WNW,297,0.0,0.0,86,0.00,,,0.00,Wunderground v.1.15,2013-06-04 04:26:00,
2013-06-04 00:35:00,59.0,55.1,29.96,WNW,297,0.0,0.0,87,0.00,,,0.00,Wunderground v.1.15,2013-06-04 04:35:00,
2013-06-04 00:40:00,59.0,55.1,29.96,WNW,297,0.0,0.0,87,0.00,,,0.00,Wunderground v.1.15,2013-06-04 04:40:00,
2013-06-04 00:45:00,59.0,55.1,29.96,WNW,297,0.0,0.0,87,0.00,,,0.00,Wunderground v.1.15,2013-06-04 04:45:00,
2013-06-04 00:50:00,58.7,55.2,29.96,WNW,297,0.0,0.0,88,0.00,,,0.00,Wunderground v.1.15,2013-06-04 04:50:00,
2013-06-04 00:55:00,58.5,55.0,29.96,WNW,297,0.0,0.0,88,0.00,,,0.00,Wunderground v.1.15,2013-06-04 04:55:00,
2013-06-04 01:01:00,58.3,55.1,29.97,WNW,297,0.0,0.0,89,0.00,,,0.00,Wunderground v.1.15,2013-06-04 05:01:00,
2013-06-04 01:10:00,57.9,55.0,29.97,WNW,297,0.0,0.0,90,0.00,,,0.00,Wunderground v.1.15,2013-06-04 05:10:00,
2013-06-04 01:15:00,57.6,54.4,29.97,WNW,297,0.0,0.0,89,0.00,,,0.00,Wunderground v.1.15,2013-06-04 05:15:00,
2013-06-04 01:20:00,57.3,54.1,29.97,WNW,297,0.0,0.0,89,0.00,,,0.00,Wunderground v.1.15,2013-06-04 05:20:00,
2013-06-04 01:26:00,57.1,54.2,29.97,WNW,297,0.0,0.0,90,0.00,,,0.00,Wunderground v.1.15,2013-06-04 05:26:00,
2013-06-04 01:35:00,56.4,53.5,29.97,WNW,297,0.0,0.0,90,0.00,,,0.00,Wunderground v.1.15,2013-06-04 05:35:00,
2013-06-04 01:40:00,56.1,53.2,29.98,WNW,297,0.0,0.0,90,0.00,,,0.00,Wunderground v.1.15,2013-06-04 05:40:00,
2013-06-04 01:45:00,55.8,53.2,29.97,WNW,297,0.0,0.0,91,0.00,,,0.00,Wunderground v.1.15,2013-06-04 05:45:00,
2013-06-04 01:51:00,55.6,53.0,29.97,WNW,297,0.0,0.0,91,0.00,,,0.00,Wunderground v.1.15,2013-06-04 05:51:00,
2013-06-04 01:56:00,55.3,53.0,29.97,WNW,297,0.0,0.0,92,0.00,,,0.00,Wunderground v.1.15,2013-06-04 05:56:00,
2013-06-04 02:01:00,55.0,52.7,29.97,WNW,297,0.0,0.0,92,0.00,,,0.00,Wunderground v.1.15,2013-06-04 06:01:00,
2013-06-04 02:06:00,54.8,52.5,29.97,WNW,297,0.0,0.0,92,0.00,,,0.00,Wunderground v.1.15,2013-06-04 06:06:00,
2013-06-04 02:11:00,54.6,52.6,29.97,WNW,297,0.0,0.0,93,0.00,,,0.00,Wunderground v.1.15,2013-06-04 06:11:00,
2013-06-04 02:16:00,54.3,52.3,29.97,WNW,297,0.0,0.0,93,0.00,,,0.00,Wunderground v.1.15,2013-06-04 06:16:00,
2013-06-04 02:21:00,54.1,52.1,29.98,WNW,297,0.0,0.0,93,0.00,,,0.00,Wunderground v.1.15,2013-06-04 06:21:00,
2013-06-04 02:26:00,53.8,52.1,29.98,WNW,297,0.0,0.0,94,0.00,,,0.00,Wunderground v.1.15,2013-06-04 06:26:00,
2013-06-04 02:31:00,53.7,52.0,29.98,WNW,297,0.0,0.0,94,0.00,,,0.00,Wunderground v.1.15,2013-06-04 06:31:00,
2013-06-04 02:41:00,53.3,51.6,29.98,WNW,297,0.0,0.0,94,0.00,,,0.00,Wunderground v.1.15,2013-06-04 06:41:00,
2013-06-04 02:50:00,53.2,51.8,29.99,WNW,297,0.0,0.0,95,0.00,,,0.00,Wunderground v.1.15,2013-06-04 06:50:00,
2013-06-04 02:55:00,53.0,51.6,29.98,WNW,297,0.0,0.0,95,0.00,,,0.00,Wunderground v.1.15,2013-06-04 06:55:00,
2013-06-04 03:01:00,52.9,51.5,29.99,WNW,297,0.0,0.0,95,0.00,,,0.00,Wunderground v.1.15,2013-06-04 07:01:00,
2013-06-04 03:06:00,52.7,51.3,29.98,WNW,297,0.0,0.0,95,0.00,,,0.00,Wunderground v.1.15,2013-06-04 07:06:00,
2013-06-04 03:16:00,52.2,50.8,29.98,WNW,297,0.0,0.0,95,0.00,,,0.00,Wunderground v.1.15,2013-06-04 07:16:00,
2013-06-04 03:21:00,52.0,50.6,29.98,WNW,297,0.0,0.0,95,0.00,,,0.00,Wunderground v.1.15,2013-06-04 07:21:00,
2013-06-04 03:26:00,51.9,50.5,29.98,WNW,297,0.0,0.0,95,0.00,,,0.00,Wunderground v.1.15,2013-06-04 07:26:00,
2013-06-04 03:31:00,51.7,50.3,29.99,WNW,297,0.0,0.0,95,0.00,,,0.00,Wunderground v.1.15,2013-06-04 07:31:00,
2013-06-04 03:36:00,51.6,50.2,29.99,WNW,297,0.0,0.0,95,0.00,,,0.00,Wunderground v.1.15,2013-06-04 07:36:00,
2013-06-04 03:41:00,51.4,50.0,29.99,WNW,297,0.0,0.0,95,0.00,,,0.00,Wunderground v.1.15,2013-06-04 07:41:00,
2013-06-04 03:51:00,51.1,49.7,29.99,WNW,297,0.0,0.0,95,0.00,,,0.00,Wunderground v.1.15,2013-06-04 07:51:00,
2013-06-04 04:00:00,51.0,49.9,29.99,WNW,297,0.0,0.0,96,0.00,,,0.00,Wunderground v.1.15,2013-06-04 08:00:00,
2013-06-04 04:05:00,51.0,49.9,29.99,WNW,297,0.0,0.0,96,0.00,,,0.00,Wunderground v.1.15,2013-06-04 08:05:00,
2013-06-04 04:11:00,50.9,49.8,29.99,WNW,297,0.0,0.0,96,0.00,,,0.00,Wunderground v.1.15,2013-06-04 08:11:00,
2013-06-04 04:16:00,50.7,49.3,30.00,WNW,297,0.0,0.0,95,0.00,,,0.00,Wunderground v.1.15,2013-06-04 08:16:00,
2013-06-04 04:26:00,50.3,48.9,30.00,WNW,297,0.0,0.0,95,0.00,,,0.00,Wunderground v.1.15,2013-06-04 08:26:00,
2013-06-04 04:31:00,50.0,48.6,30.00,WNW,297,0.0,0.0,95,0.00,,,0.00,Wunderground v.1.15,2013-06-04 08:31:00,
2013-06-04 04:36:00,49.7,48.0,30.01,WNW,297,0.0,0.0,94,0.00,,,0.00,Wunderground v.1.15,2013-06-04 08:36:00,
2013-06-04 04:41:00,49.6,48.2,30.01,WNW,297,0.0,0.0,95,0.00,,,0.00,Wunderground v.1.15,2013-06-04 08:41:00,
2013-06-04 04:46:00,49.4,48.0,30.01,WNW,297,0.0,0.0,95,0.00,,,0.00,Wunderground v.1.15,2013-06-04 08:46:00,
2013-06-04 04:56:00,49.0,47.3,30.01,WNW,297,0.0,0.0,94,0.00,,,0.00,Wunderground v.1.15,2013-06-04 08:56:00,
2013-06-04 05:01:00,48.9,47.2,30.01,WNW,297,0.0,1.0,94,0.00,,,0.00,Wunderground v.1.15,2013-06-04 09:01:00,
2013-06-04 05:10:00,49.0,47.3,30.01,WNW,297,0.0,0.0,94,0.00,,,0.00,Wunderground v.1.15,2013-06-04 09:10:00,
2013-06-04 05:15:00,49.2,47.3,30.01,WNW,297,0.0,0.0,93,0.00,,,0.00,Wunderground v.1.15,2013-06-04 09:15:00,
2013-06-04 05:20:00,49.2,46.7,30.02,WNW,297,0.0,0.0,91,0.00,,,0.00,Wunderground v.1.15,2013-06-04 09:20:00,
2013-06-04 05:25:00,49.4,46.9,30.02,WNW,297,0.0,0.0,91,0.00,,,0.00,Wunderground v.1.15,2013-06-04 09:25:00,
2013-06-04 05:30:00,49.4,46.6,30.02,WNW,297,0.0,0.0,90,0.00,,,0.00,Wunderground v.1.15,2013-06-04 09:30:00,
2013-06-04 05:35:00,49.4,46.6,30.02,WNW,297,0.0,0.0,90,0.00,,,0.00,Wunderground v.1.15,2013-06-04 09:35:00,
2013-06-04 05:40:00,49.5,46.7,30.02,WNW,297,0.0,0.0,90,0.00,,,0.00,Wunderground v.1.15,2013-06-04 09:40:00,
2013-06-04 05:45:00,49.5,46.4,30.03,WNW,297,0.0,0.0,89,0.00,,,0.00,Wunderground v.1.15,2013-06-04 09:45:00,
2013-06-04 05:51:00,49.5,46.4,30.03,WNW,297,0.0,0.0,89,0.00,,,0.00,Wunderground v.1.15,2013-06-04 09:51:00,
2013-06-04 05:56:00,49.4,46.0,30.03,WNW,297,0.0,0.0,88,0.00,,,0.00,Wunderground v.1.15,2013-06-04 09:56:00,
2013-06-04 06:01:00,49.3,45.9,30.04,WNW,297,0.0,0.0,88,0.00,,,0.00,Wunderground v.1.15,2013-06-04 10:01:00,
2013-06-04 06:06:00,49.4,46.0,30.04,WNW,297,0.0,0.0,88,0.00,,,0.00,Wunderground v.1.15,2013-06-04 10:06:00,
2013-06-04 06:11:00,49.5,46.1,30.04,WNW,297,1.0,1.0,88,0.00,,,0.00,Wunderground v.1.15,2013-06-04 10:11:00,
2013-06-04 06:16:00,49.7,46.0,30.04,WNW,297,1.0,1.0,87,0.00,,,0.00,Wunderground v.1.15,2013-06-04 10:16:00,
2013-06-04 07:59:00,55.0,48.9,30.08,WNW,293,1.0,-999.0,80,0.00,,,0.00,Wunderground v.1.15,2013-06-04 11:59:00,
2013-06-04 08:04:00,55.0,48.9,30.08,WNW,293,1.0,-999.0,80,0.00,,,0.00,Wunderground v.1.15,2013-06-04 12:04:00,
2013-06-04 08:09:00,57.2,49.7,30.09,WNW,293,1.0,-999.0,76,0.00,,,0.00,Wunderground v.1.15,2013-06-04 12:09:00,
2013-06-04 08:14:00,57.2,49.7,30.09,WNW,293,1.0,-999.0,76,0.00,,,0.00,Wunderground v.1.15,2013-06-04 12:14:00,
2013-06-04 08:19:00,59.0,50.0,30.09,WNW,293,1.0,-999.0,72,0.00,,,0.00,Wunderground v.1.15,2013-06-04 12:19:00,
2013-06-04 08:24:00,59.0,50.0,30.09,WNW,293,1.0,-999.0,72,0.00,,,0.00,Wunderground v.1.15,2013-06-04 12:24:00,
2013-06-04 08:29:00,60.7,51.6,30.10,WNW,293,1.0,-999.0,72,0.00,,,0.00,Wunderground v.1.15,2013-06-04 12:29:00,
2013-06-04 08:34:00,60.7,51.6,30.10,WNW,293,1.0,-999.0,72,0.00,,,0.00,Wunderground v.1.15,2013-06-04 12:34:00,
2013-06-04 08:39:00,62.6,52.7,30.09,WNW,293,1.0,-999.0,70,0.00,,,0.00,Wunderground v.1.15,2013-06-04 12:39:00,
2013-06-04 08:44:00,62.6,52.7,30.09,WNW,293,1.0,-999.0,70,0.00,,,0.00,Wunderground v.1.15,2013-06-04 12:44:00,
2013-06-04 08:49:00,63.9,52.3,30.10,WNW,293,1.0,-999.0,66,0.00,,,0.00,Wunderground v.1.15,2013-06-04 12:49:00,
2013-06-04 08:54:00,63.9,52.3,30.10,WNW,293,1.0,-999.0,66,0.00,,,0.00,Wunderground v.1.15,2013-06-04 12:54:00,
2013-06-04 08:59:00,64.0,52.0,30.10,WNW,293,1.0,-999.0,65,0.00,,,0.00,Wunderground v.1.15,2013-06-04 12:59:00,
2013-06-04 09:04:00,64.0,52.0,30.10,WNW,293,1.0,-999.0,65,0.00,,,0.00,Wunderground v.1.15,2013-06-04 13:04:00,
2013-06-04 09:09:00,64.5,52.0,30.10,NW,315,2.0,-999.0,64,0.00,,,0.00,Wunderground v.1.15,2013-06-04 13:09:00,
2013-06-04 09:14:00,64.5,52.0,30.10,NW,315,2.0,-999.0,64,0.00,,,0.00,Wunderground v.1.15,2013-06-04 13:14:00,
2013-06-04 09:19:00,64.9,51.1,30.11,NW,315,1.0,-999.0,61,0.00,,,0.00,Wunderground v.1.15,2013-06-04 13:19:00,
2013-06-04 09:24:00,64.9,51.1,30.11,NW,315,1.0,-999.0,61,0.00,,,0.00,Wunderground v.1.15,2013-06-04 13:24:00,
2013-06-04 09:29:00,65.3,51.9,30.11,NW,315,1.0,-999.0,62,0.00,,,0.00,Wunderground v.1.15,2013-06-04 13:29:00,
2013-06-04 09:34:00,65.3,51.9,30.11,NW,315,1.0,-999.0,62,0.00,,,0.00,Wunderground v.1.15,2013-06-04 13:34:00,
2013-06-04 09:39:00,65.9,53.4,30.11,NW,315,2.0,-999.0,64,0.00,,,0.00,Wunderground v.1.15,2013-06-04 13:39:00,
2013-06-04 09:44:00,65.9,53.4,30.11,NW,315,2.0,-999.0,64,0.00,,,0.00,Wunderground v.1.15,2013-06-04 13:44:00,
2013-06-04 09:49:00,66.5,55.2,30.11,NW,315,1.0,-999.0,67,0.00,,,0.00,Wunderground v.1.15,2013-06-04 13:49:00,
2013-06-04 09:54:00,66.5,55.2,30.11,NW,315,1.0,-999.0,67,0.00,,,0.00,Wunderground v.1.15,2013-06-04 13:54:00,
2013-06-04 09:59:00,67.1,53.2,30.11,NW,315,2.0,-999.0,61,0.00,,,0.00,Wunderground v.1.15,2013-06-04 13:59:00,
2013-06-04 10:04:00,67.1,53.2,30.11,NW,315,2.0,-999.0,61,0.00,,,0.00,Wunderground v.1.15,2013-06-04 14:04:00,
2013-06-04 10:09:00,67.0,53.1,30.11,NW,315,1.0,-999.0,61,0.00,,,0.00,Wunderground v.1.15,2013-06-04 14:09:00,
2013-06-04 10:14:00,67.0,53.1,30.11,NW,315,1.0,-999.0,61,0.00,,,0.00,Wunderground v.1.15,2013-06-04 14:14:00,
2013-06-04 10:19:00,67.9,54.8,30.10,NW,315,1.0,-999.0,63,0.00,,,0.00,Wunderground v.1.15,2013-06-04 14:19:00,
2013-06-04 10:24:00,67.9,54.8,30.10,NW,315,1.0,-999.0,63,0.00,,,0.00,Wunderground v.1.15,2013-06-04 14:24:00,
2013-06-04 10:29:00,68.6,55.1,30.11,NW,315,2.0,-999.0,62,0.00,,,0.00,Wunderground v.1.15,2013-06-04 14:29:00,
2013-06-04 10:34:00,68.6,55.1,30.11,NW,315,2.0,-999.0,62,0.00,,,0.00,Wunderground v.1.15,2013-06-04 14:34:00,
2013-06-04 10:39:00,69.2,56.5,30.11,NW,315,2.0,-999.0,64,0.00,,,0.00,Wunderground v.1.15,2013-06-04 14:39:00,
2013-06-04 10:44:00,69.2,56.5,30.11,NW,315,2.0,-999.0,64,0.00,,,0.00,Wunderground v.1.15,2013-06-04 14:44:00,
2013-06-04 10:49:00,69.7,56.5,30.11,NW,315,0.0,-999.0,63,0.00,,,0.00,Wunderground v.1.15,2013-06-04 14:49:00,
2013-06-04 10:54:00,69.7,56.5,30.11,NW,315,0.0,-999.0,63,0.00,,,0.00,Wunderground v.1.15,2013-06-04 14:54:00,
2013-06-04 10:59:00,70.0,54.5,30.11,NW,315,2.0,-999.0,58,0.00,,,0.00,Wunderground v.1.15,2013-06-04 14:59:00,
2013-06-04 11:04:00,70.0,54.5,30.11,NW,315,2.0,-999.0,58,0.00,,,0.00,Wunderground v.1.15,2013-06-04 15:04:00,
2013-06-04 11:09:00,69.9,54.9,30.11,NW,315,2.0,-999.0,59,0.00,,,0.00,Wunderground v.1.15,2013-06-04 15:09:00,
2013-06-04 11:14:00,69.9,54.9,30.11,NW,315,2.0,-999.0,59,0.00,,,0.00,Wunderground v.1.15,2013-06-04 15:14:00,
2013-06-04 11:19:00,70.5,54.0,30.10,NW,315,2.0,-999.0,56,0.00,,,0.00,Wunderground v.1.15,2013-06-04 15:19:00,
2013-06-04 11:24:00,70.5,54.0,30.10,NW,315,2.0,-999.0,56,0.00,,,0.00,Wunderground v.1.15,2013-06-04 15:24:00,
2013-06-04 11:29:00,69.6,51.7,30.11,NW,315,1.0,-999.0,53,0.00,,,0.00,Wunderground v.1.15,2013-06-04 15:29:00,
2013-06-04 11:34:00,69.6,51.7,30.11,NW,315,1.0,-999.0,53,0.00,,,0.00,Wunderground v.1.15,2013-06-04 15:34:00,
2013-06-04 11:39:00,70.0,57.7,30.10,NW,315,1.0,-999.0,65,0.00,,,0.00,Wunderground v.1.15,2013-06-04 15:39:00,
2013-06-04 11:44:00,70.0,57.7,30.10,NW,315,1.0,-999.0,65,0.00,,,0.00,Wunderground v.1.15,2013-06-04 15:44:00,
2013-06-04 11:49:00,70.4,56.8,30.11,NW,315,1.0,-999.0,62,0.00,,,0.00,Wunderground v.1.15,2013-06-04 15:49:00,
2013-06-04 11:54:00,70.4,56.8,30.11,NW,315,1.0,-999.0,62,0.00,,,0.00,Wunderground v.1.15,2013-06-04 15:54:00,
2013-06-04 11:59:00,71.3,54.3,30.10,NW,315,1.0,-999.0,55,0.00,,,0.00,Wunderground v.1.15,2013-06-04 15:59:00,
2013-06-04 12:04:00,71.3,54.3,30.10,NW,315,1.0,-999.0,55,0.00,,,0.00,Wunderground v.1.15,2013-06-04 16:04:00,
2013-06-04 12:09:00,70.6,57.8,30.10,NW,315,1.0,-999.0,64,0.00,,,0.00,Wunderground v.1.15,2013-06-04 16:09:00,
2013-06-04 12:14:00,70.6,57.8,30.10,NW,315,1.0,-999.0,64,0.00,,,0.00,Wunderground v.1.15,2013-06-04 16:14:00,
2013-06-04 12:19:00,71.5,58.7,30.10,NW,315,1.0,-999.0,64,0.00,,,0.00,Wunderground v.1.15,2013-06-04 16:19:00,
2013-06-04 12:24:00,71.5,58.7,30.10,NW,315,1.0,-999.0,64,0.00,,,0.00,Wunderground v.1.15,2013-06-04 16:24:00,
2013-06-04 12:29:00,71.3,55.3,30.10,NW,315,1.0,-999.0,57,0.00,,,0.00,Wunderground v.1.15,2013-06-04 16:29:00,
2013-06-04 12:34:00,71.3,55.3,30.10,NW,315,1.0,-999.0,57,0.00,,,0.00,Wunderground v.1.15,2013-06-04 16:34:00,
2013-06-04 12:39:00,71.9,56.8,30.09,WNW,293,1.0,-999.0,59,0.00,,,0.00,Wunderground v.1.15,2013-06-04 16:39:00,
2013-06-04 12:44:00,71.9,56.8,30.09,WNW,293,1.0,-999.0,59,0.00,,,0.00,Wunderground v.1.15,2013-06-04 16:44:00,
2013-06-04 12:49:00,72.1,57.4,30.09,WNW,293,1.0,-999.0,60,0.00,,,0.00,Wunderground v.1.15,2013-06-04 16:49:00,
2013-06-04 12:54:00,72.1,57.4,30.09,WNW,293,1.0,-999.0,60,0.00,,,0.00,Wunderground v.1.15,2013-06-04 16:54:00,
2013-06-04 12:59:00,71.8,55.7,30.09,WNW,293,1.0,-999.0,57,0.00,,,0.00,Wunderground v.1.15,2013-06-04 16:59:00,
2013-06-04 13:04:00,71.8,55.7,30.09,WNW,293,1.0,-999.0,57,0.00,,,0.00,Wunderground v.1.15,2013-06-04 17:04:00,
2013-06-04 13:09:00,71.9,58.2,30.09,WNW,293,1.0,-999.0,62,0.00,,,0.00,Wunderground v.1.15,2013-06-04 17:09:00,
2013-06-04 13:14:00,71.9,58.2,30.09,WNW,293,1.0,-999.0,62,0.00,,,0.00,Wunderground v.1.15,2013-06-04 17:14:00,
2013-06-04 13:19:00,72.7,54.6,30.09,WNW,293,1.0,-999.0,53,0.00,,,0.00,Wunderground v.1.15,2013-06-04 17:19:00,
2013-06-04 13:24:00,72.7,54.6,30.09,WNW,293,1.0,-999.0,53,0.00,,,0.00,Wunderground v.1.15,2013-06-04 17:24:00,
2013-06-04 13:29:00,73.7,58.9,30.08,WNW,293,1.0,-999.0,60,0.00,,,0.00,Wunderground v.1.15,2013-06-04 17:29:00,
2013-06-04 13:34:00,73.7,58.9,30.08,WNW,293,1.0,-999.0,60,0.00,,,0.00,Wunderground v.1.15,2013-06-04 17:34:00,
2013-06-04 13:39:00,73.2,56.6,30.07,WNW,293,1.0,-999.0,56,0.00,,,0.00,Wunderground v.1.15,2013-06-04 17:39:00,
2013-06-04 13:44:00,73.2,56.6,30.07,WNW,293,1.0,-999.0,56,0.00,,,0.00,Wunderground v.1.15,2013-06-04 17:44:00,
2013-06-04 13:49:00,73.5,63.5,30.07,WNW,293,1.0,-999.0,71,0.00,,,0.00,Wunderground v.1.15,2013-06-04 17:49:00,
2013-06-04 13:54:00,73.5,63.5,30.07,WNW,293,1.0,-999.0,71,0.00,,,0.00,Wunderground v.1.15,2013-06-04 17:54:00,
2013-06-04 13:59:00,74.3,56.6,30.07,WNW,293,1.0,-999.0,54,0.00,,,0.00,Wunderground v.1.15,2013-06-04 17:59:00,
2013-06-04 14:04:00,74.3,56.6,30.07,WNW,293,1.0,-999.0,54,0.00,,,0.00,Wunderground v.1.15,2013-06-04 18:04:00,
2013-06-04 14:09:00,73.7,60.3,30.07,WNW,293,2.0,-999.0,63,0.00,,,0.00,Wunderground v.1.15,2013-06-04 18:09:00,
2013-06-04 14:14:00,73.7,60.3,30.07,WNW,293,2.0,-999.0,63,0.00,,,0.00,Wunderground v.1.15,2013-06-04 18:14:00,
2013-06-04 14:19:00,74.2,56.5,30.07,WNW,293,2.0,-999.0,54,0.00,,,0.00,Wunderground v.1.15,2013-06-04 18:19:00,
2013-06-04 14:24:00,74.2,56.5,30.07,WNW,293,2.0,-999.0,54,0.00,,,0.00,Wunderground v.1.15,2013-06-04 18:24:00,
2013-06-04 14:29:00,74.8,56.5,30.07,WNW,293,2.0,-999.0,53,0.00,,,0.00,Wunderground v.1.15,2013-06-04 18:29:00,
2013-06-04 14:34:00,74.8,56.5,30.07,WNW,293,2.0,-999.0,53,0.00,,,0.00,Wunderground v.1.15,2013-06-04 18:34:00,
2013-06-04 14:39:00,75.1,57.3,30.07,WNW,293,1.0,-999.0,54,0.00,,,0.00,Wunderground v.1.15,2013-06-04 18:39:00,
2013-06-04 14:44:00,75.1,57.3,30.07,WNW,293,1.0,-999.0,54,0.00,,,0.00,Wunderground v.1.15,2013-06-04 18:44:00,
2013-06-04 14:49:00,75.3,57.5,30.07,WNW,293,1.0,-999.0,54,0.00,,,0.00,Wunderground v.1.15,2013-06-04 18:49:00,
2013-06-04 14:54:00,75.3,57.5,30.07,WNW,293,1.0,-999.0,54,0.00,,,0.00,Wunderground v.1.15,2013-06-04 18:54:00,
2013-06-04 14:59:00,75.0,59.2,30.07,WNW,293,1.0,-999.0,58,0.00,,,0.00,Wunderground v.1.15,2013-06-04 18:59:00,
2013-06-04 15:04:00,75.0,59.2,30.07,WNW,293,1.0,-999.0,58,0.00,,,0.00,Wunderground v.1.15,2013-06-04 19:04:00,
2013-06-04 15:09:00,74.5,56.8,30.07,WNW,293,1.0,-999.0,54,0.00,,,0.00,Wunderground v.1.15,2013-06-04 19:09:00,
2013-06-04 15:14:00,74.5,56.8,30.07,WNW,293,1.0,-999.0,54,0.00,,,0.00,Wunderground v.1.15,2013-06-04 19:14:00,
2013-06-04 15:19:00,75.1,58.8,30.07,WNW,293,1.0,-999.0,57,0.00,,,0.00,Wunderground v.1.15,2013-06-04 19:19:00,
2013-06-04 15:24:00,75.1,58.8,30.07,WNW,293,1.0,-999.0,57,0.00,,,0.00,Wunderground v.1.15,2013-06-04 19:24:00,
2013-06-04 15:29:00,75.9,57.5,30.07,NW,315,1.0,-999.0,53,0.00,,,0.00,Wunderground v.1.15,2013-06-04 19:29:00,
2013-06-04 15:34:00,75.9,57.5,30.07,NW,315,1.0,-999.0,53,0.00,,,0.00,Wunderground v.1.15,2013-06-04 19:34:00,
2013-06-04 15:39:00,76.3,58.9,30.07,NW,315,1.0,-999.0,55,0.00,,,0.00,Wunderground v.1.15,2013-06-04 19:39:00,
2013-06-04 15:44:00,76.3,58.9,30.07,NW,315,1.0,-999.0,55,0.00,,,0.00,Wunderground v.1.15,2013-06-04 19:44:00,
2013-06-04 15:49:00,76.3,58.9,30.07,NW,315,0.0,-999.0,55,0.00,,,0.00,Wunderground v.1.15,2013-06-04 19:49:00,
2013-06-04 15:54:00,76.3,58.9,30.07,NW,315,0.0,-999.0,55,0.00,,,0.00,Wunderground v.1.15,2013-06-04 19:54:00,
2013-06-04 15:59:00,76.6,56.6,30.07,NW,315,1.0,-999.0,50,0.00,,,0.00,Wunderground v.1.15,2013-06-04 19:59:00,
2013-06-04 16:04:00,76.6,56.6,30.07,NW,315,1.0,-999.0,50,0.00,,,0.00,Wunderground v.1.15,2013-06-04 20:04:00,
2013-06-04 16:09:00,74.8,55.5,30.07,NW,315,1.0,-999.0,51,0.00,,,0.00,Wunderground v.1.15,2013-06-04 20:09:00,
2013-06-04 16:14:00,74.8,55.5,30.07,NW,315,1.0,-999.0,51,0.00,,,0.00,Wunderground v.1.15,2013-06-04 20:14:00,
2013-06-04 16:19:00,74.2,58.9,30.07,NW,315,1.0,-999.0,59,0.00,,,0.00,Wunderground v.1.15,2013-06-04 20:19:00,
2013-06-04 16:24:00,74.2,58.9,30.07,NW,315,1.0,-999.0,59,0.00,,,0.00,Wunderground v.1.15,2013-06-04 20:24:00,
2013-06-04 16:29:00,75.7,57.9,30.06,NW,315,1.0,-999.0,54,0.00,,,0.00,Wunderground v.1.15,2013-06-04 20:29:00,
2013-06-04 16:34:00,75.7,57.9,30.06,NW,315,1.0,-999.0,54,0.00,,,0.00,Wunderground v.1.15,2013-06-04 20:34:00,
2013-06-04 16:39:00,74.6,56.9,30.06,West,270,2.0,-999.0,54,0.00,,,0.00,Wunderground v.1.15,2013-06-04 20:39:00,
2013-06-04 16:44:00,74.6,56.9,30.06,West,270,2.0,-999.0,54,0.00,,,0.00,Wunderground v.1.15,2013-06-04 20:44:00,
2013-06-04 16:49:00,74.2,58.9,30.06,West,270,1.0,-999.0,59,0.00,,,0.00,Wunderground v.1.15,2013-06-04 20:49:00,
2013-06-04 16:54:00,74.2,58.9,30.06,West,270,1.0,-999.0,59,0.00,,,0.00,Wunderground v.1.15,2013-06-04 20:54:00,
2013-06-04 16:59:00,74.4,57.7,30.06,SSW,203,1.0,-999.0,56,0.00,,,0.00,Wunderground v.1.15,2013-06-04 20:59:00,
2013-06-04 17:04:00,74.4,57.7,30.06,SSW,203,1.0,-999.0,56,0.00,,,0.00,Wunderground v.1.15,2013-06-04 21:04:00,
2013-06-04 17:09:00,74.7,58.5,30.06,SW,225,1.0,-999.0,57,0.00,,,0.00,Wunderground v.1.15,2013-06-04 21:09:00,
2013-06-04 17:14:00,74.7,58.5,30.06,SW,225,1.0,-999.0,57,0.00,,,0.00,Wunderground v.1.15,2013-06-04 21:14:00,
2013-06-04 17:19:00,75.1,57.3,30.06,SW,225,1.0,-999.0,54,0.00,,,0.00,Wunderground v.1.15,2013-06-04 21:19:00,
2013-06-04 17:24:00,75.1,57.3,30.06,SW,225,1.0,-999.0,54,0.00,,,0.00,Wunderground v.1.15,2013-06-04 21:24:00,
2013-06-04 17:29:00,74.5,56.2,30.06,SW,225,1.0,-999.0,53,0.00,,,0.00,Wunderground v.1.15,2013-06-04 21:29:00,
2013-06-04 17:30:00,74.5,56.2,30.06,SW,225,1.0,-999.0,53,0.00,,,0.00,Wunderground v.1.15,2013-06-04 21:30:00,
2013-06-04 17:34:00,74.5,56.2,30.06,SW,225,1.0,-999.0,53,0.00,,,0.00,Wunderground v.1.15,2013-06-04 21:34:00,
2013-06-04 17:35:00,74.3,56.6,30.06,WSW,248,1.0,-999.0,54,0.00,,,0.00,Wunderground v.1.15,2013-06-04 21:35:00,
2013-06-04 17:39:00,74.3,56.6,30.06,WSW,248,1.0,-999.0,54,0.00,,,0.00,Wunderground v.1.15,2013-06-04 21:39:00,
2013-06-04 17:40:00,74.3,56.6,30.06,WSW,248,1.0,-999.0,54,0.00,,,0.00,Wunderground v.1.15,2013-06-04 21:40:00,
2013-06-04 17:41:00,74.3,56.6,30.06,WSW,248,1.0,-999.0,54,0.00,,,0.00,Wunderground v.1.15,2013-06-04 21:41:00,
2013-06-04 17:44:00,74.3,56.6,30.06,WSW,248,1.0,-999.0,54,0.00,,,0.00,Wunderground v.1.15,2013-06-04 21:44:00,
2013-06-04 17:45:00,74.3,56.1,30.06,WSW,248,1.0,-999.0,53,0.00,,,0.00,Wunderground v.1.15,2013-06-04 21:45:00,
2013-06-04 17:46:00,74.3,56.1,30.06,WSW,248,1.0,-999.0,53,0.00,,,0.00,Wunderground v.1.15,2013-06-04 21:46:00,
2013-06-04 17:49:00,74.3,56.1,30.06,WSW,248,1.0,-999.0,53,0.00,,,0.00,Wunderground v.1.15,2013-06-04 21:49:00,
2013-06-04 17:50:00,74.3,56.1,30.06,WSW,248,1.0,-999.0,53,0.00,,,0.00,Wunderground v.1.15,2013-06-04 21:50:00,
2013-06-04 17:51:00,74.3,56.1,30.06,WSW,248,1.0,-999.0,53,0.00,,,0.00,Wunderground v.1.15,2013-06-04 21:51:00,
2013-06-04 17:54:00,74.3,56.1,30.06,WSW,248,1.0,-999.0,53,0.00,,,0.00,Wunderground v.1.15,2013-06-04 21:54:00,
2013-06-04 17:55:00,73.0,55.9,30.06,WSW,248,1.0,-999.0,55,0.00,,,0.00,Wunderground v.1.15,2013-06-04 21:55:00,
2013-06-04 17:56:00,73.0,55.9,30.06,WSW,248,1.0,-999.0,55,0.00,,,0.00,Wunderground v.1.15,2013-06-04 21:56:00,
2013-06-04 17:59:00,73.0,55.9,30.06,WSW,248,1.0,-999.0,55,0.00,,,0.00,Wunderground v.1.15,2013-06-04 21:59:00,
2013-06-04 18:00:00,73.0,55.9,30.06,WSW,248,1.0,-999.0,55,0.00,,,0.00,Wunderground v.1.15,2013-06-04 22:00:00,
2013-06-04 18:01:00,73.0,55.9,30.06,WSW,248,1.0,-999.0,55,0.00,,,0.00,Wunderground v.1.15,2013-06-04 22:01:00,
2013-06-04 18:04:00,73.0,55.9,30.06,WSW,248,1.0,-999.0,55,0.00,,,0.00,Wunderground v.1.15,2013-06-04 22:04:00,
2013-06-04 18:05:00,71.5,54.0,30.06,WSW,248,1.0,-999.0,54,0.00,,,0.00,Wunderground v.1.15,2013-06-04 22:05:00,
2013-06-04 18:06:00,71.5,54.0,30.06,WSW,248,1.0,-999.0,54,0.00,,,0.00,Wunderground v.1.15,2013-06-04 22:06:00,
2013-06-04 18:09:00,71.5,54.0,30.06,WSW,248,1.0,-999.0,54,0.00,,,0.00,Wunderground v.1.15,2013-06-04 22:09:00,
2013-06-04 18:10:00,71.5,54.0,30.06,WSW,248,1.0,-999.0,54,0.00,,,0.00,Wunderground v.1.15,2013-06-04 22:10:00,
2013-06-04 18:11:00,71.5,54.0,30.06,WSW,248,1.0,-999.0,54,0.00,,,0.00,Wunderground v.1.15,2013-06-04 22:11:00,
2013-06-04 18:14:00,71.5,54.0,30.06,WSW,248,1.0,-999.0,54,0.00,,,0.00,Wunderground v.1.15,2013-06-04 22:14:00,
2013-06-04 18:15:00,71.0,55.5,30.06,WSW,248,1.0,-999.0,58,0.00,,,0.00,Wunderground v.1.15,2013-06-04 22:15:00,
2013-06-04 18:16:00,71.0,55.5,30.06,WSW,248,1.0,-999.0,58,0.00,,,0.00,Wunderground v.1.15,2013-06-04 22:16:00,
2013-06-04 18:19:00,71.0,55.5,30.06,WSW,248,1.0,-999.0,58,0.00,,,0.00,Wunderground v.1.15,2013-06-04 22:19:00,
2013-06-04 18:20:00,71.0,55.5,30.06,WSW,248,1.0,-999.0,58,0.00,,,0.00,Wunderground v.1.15,2013-06-04 22:20:00,
2013-06-04 18:21:00,71.0,55.5,30.06,WSW,248,1.0,-999.0,58,0.00,,,0.00,Wunderground v.1.15,2013-06-04 22:21:00,
2013-06-04 18:24:00,71.0,55.5,30.06,WSW,248,1.0,-999.0,58,0.00,,,0.00,Wunderground v.1.15,2013-06-04 22:24:00,
2013-06-04 18:25:00,70.6,56.5,30.06,WSW,248,0.0,-999.0,61,0.00,,,0.00,Wunderground v.1.15,2013-06-04 22:25:00,
2013-06-04 18:26:00,70.6,56.5,30.06,WSW,248,0.0,-999.0,61,0.00,,,0.00,Wunderground v.1.15,2013-06-04 22:26:00,
2013-06-04 18:28:00,70.6,56.5,30.06,WSW,248,0.0,-999.0,61,0.00,,,0.00,Wunderground v.1.15,2013-06-04 22:28:00,
2013-06-04 18:29:00,70.6,56.5,30.06,WSW,248,0.0,-999.0,61,0.00,,,0.00,Wunderground v.1.15,2013-06-04 22:29:00,
2013-06-04 18:30:00,70.6,56.5,30.06,WSW,248,0.0,-999.0,61,0.00,,,0.00,Wunderground v.1.15,2013-06-04 22:30:00,
2013-06-04 18:31:00,70.6,56.5,30.06,WSW,248,0.0,-999.0,61,0.00,,,0.00,Wunderground v.1.15,2013-06-04 22:31:00,
2013-06-04 18:33:00,70.6,56.5,30.06,WSW,248,0.0,-999.0,61,0.00,,,0.00,Wunderground v.1.15,2013-06-04 22:33:00,
2013-06-04 18:34:00,70.6,56.5,30.06,WSW,248,0.0,-999.0,61,0.00,,,0.00,Wunderground v.1.15,2013-06-04 22:34:00,
2013-06-04 18:35:00,70.0,55.5,30.06,WSW,248,0.0,-999.0,60,0.00,,,0.00,Wunderground v.1.15,2013-06-04 22:35:00,
2013-06-04 18:36:00,70.0,55.5,30.06,WSW,248,0.0,-999.0,60,0.00,,,0.00,Wunderground v.1.15,2013-06-04 22:36:00,
2013-06-04 18:38:00,70.0,55.5,30.06,WSW,248,0.0,-999.0,60,0.00,,,0.00,Wunderground v.1.15,2013-06-04 22:38:00,
2013-06-04 18:39:00,70.0,55.5,30.06,WSW,248,0.0,-999.0,60,0.00,,,0.00,Wunderground v.1.15,2013-06-04 22:39:00,
2013-06-04 18:40:00,70.0,55.5,30.06,WSW,248,0.0,-999.0,60,0.00,,,0.00,Wunderground v.1.15,2013-06-04 22:40:00,
2013-06-04 18:41:00,70.0,55.5,30.06,WSW,248,0.0,-999.0,60,0.00,,,0.00,Wunderground v.1.15,2013-06-04 22:41:00,
2013-06-04 18:43:00,70.0,55.5,30.06,WSW,248,0.0,-999.0,60,0.00,,,0.00,Wunderground v.1.15,2013-06-04 22:43:00,
2013-06-04 18:44:00,70.0,55.5,30.06,WSW,248,0.0,-999.0,60,0.00,,,0.00,Wunderground v.1.15,2013-06-04 22:44:00,
2013-06-04 18:45:00,69.8,55.3,30.06,WSW,248,0.0,-999.0,60,0.00,,,0.00,Wunderground v.1.15,2013-06-04 22:45:00,
2013-06-04 18:46:00,69.8,55.3,30.06,WSW,248,0.0,-999.0,60,0.00,,,0.00,Wunderground v.1.15,2013-06-04 22:46:00,
2013-06-04 18:48:00,69.8,55.3,30.06,WSW,248,0.0,-999.0,60,0.00,,,0.00,Wunderground v.1.15,2013-06-04 22:48:00,
2013-06-04 18:49:00,69.8,55.3,30.06,WSW,248,0.0,-999.0,60,0.00,,,0.00,Wunderground v.1.15,2013-06-04 22:49:00,
2013-06-04 18:50:00,69.8,55.3,30.06,WSW,248,0.0,-999.0,60,0.00,,,0.00,Wunderground v.1.15,2013-06-04 22:50:00,
2013-06-04 18:51:00,69.8,55.3,30.06,WSW,248,0.0,-999.0,60,0.00,,,0.00,Wunderground v.1.15,2013-06-04 22:51:00,
2013-06-04 18:54:00,69.8,55.3,30.06,WSW,248,0.0,-999.0,60,0.00,,,0.00,Wunderground v.1.15,2013-06-04 22:54:00,
2013-06-04 18:55:00,69.6,56.4,30.06,WSW,248,0.0,-999.0,63,0.00,,,0.00,Wunderground v.1.15,2013-06-04 22:55:00,
2013-06-04 18:56:00,69.6,56.4,30.06,WSW,248,0.0,-999.0,63,0.00,,,0.00,Wunderground v.1.15,2013-06-04 22:56:00,
2013-06-04 18:59:00,69.6,56.4,30.06,WSW,248,0.0,-999.0,63,0.00,,,0.00,Wunderground v.1.15,2013-06-04 22:59:00,
2013-06-04 19:00:00,69.6,56.4,30.06,WSW,248,0.0,-999.0,63,0.00,,,0.00,Wunderground v.1.15,2013-06-04 23:00:00,
2013-06-04 19:01:00,69.6,56.4,30.06,WSW,248,0.0,-999.0,63,0.00,,,0.00,Wunderground v.1.15,2013-06-04 23:01:00,
2013-06-04 19:04:00,69.6,56.4,30.06,WSW,248,0.0,-999.0,63,0.00,,,0.00,Wunderground v.1.15,2013-06-04 23:04:00,
2013-06-04 19:05:00,69.1,56.4,29.89,WSW,248,0.0,-999.0,64,0.00,,,0.00,Wunderground v.1.15,2013-06-04 23:05:00,
2013-06-04 19:06:00,69.1,56.4,29.89,WSW,248,0.0,-999.0,64,0.00,,,0.00,Wunderground v.1.15,2013-06-04 23:06:00,
2013-06-04 19:09:00,69.1,56.4,29.89,WSW,248,0.0,-999.0,64,0.00,,,0.00,Wunderground v.1.15,2013-06-04 23:09:00,
2013-06-04 19:10:00,69.1,56.4,29.89,WSW,248,0.0,-999.0,64,0.00,,,0.00,Wunderground v.1.15,2013-06-04 23:10:00,
2013-06-04 19:11:00,69.1,56.4,29.89,WSW,248,0.0,-999.0,64,0.00,,,0.00,Wunderground v.1.15,2013-06-04 23:11:00,
2013-06-04 19:14:00,69.1,56.4,29.89,WSW,248,0.0,-999.0,64,0.00,,,0.00,Wunderground v.1.15,2013-06-04 23:14:00,
2013-06-04 19:15:00,68.5,55.4,30.07,N/A,-737280,0.0,-999.0,63,0.00,,,0.00,Wunderground v.1.15,2013-06-04 23:15:00,
2013-06-04 19:16:00,68.5,55.4,30.07,N/A,-737280,0.0,-999.0,63,0.00,,,0.00,Wunderground v.1.15,2013-06-04 23:16:00,
2013-06-04 19:19:00,68.5,55.4,30.07,N/A,-737280,0.0,-999.0,63,0.00,,,0.00,Wunderground v.1.15,2013-06-04 23:19:00,
2013-06-04 19:20:00,68.5,55.4,30.07,N/A,-737280,0.0,-999.0,63,0.00,,,0.00,Wunderground v.1.15,2013-06-04 23:20:00,
2013-06-04 19:21:00,68.5,55.4,30.07,N/A,-737280,0.0,-999.0,63,0.00,,,0.00,Wunderground v.1.15,2013-06-04 23:21:00,
2013-06-04 19:24:00,68.5,55.4,30.07,N/A,-737280,0.0,-999.0,63,0.00,,,0.00,Wunderground v.1.15,2013-06-04 23:24:00,
2013-06-04 19:25:00,68.0,56.2,29.90,N/A,-737280,0.0,-999.0,66,0.00,,,0.00,Wunderground v.1.15,2013-06-04 23:25:00,
2013-06-04 19:26:00,68.0,56.2,29.90,N/A,-737280,0.0,-999.0,66,0.00,,,0.00,Wunderground v.1.15,2013-06-04 23:26:00,
2013-06-04 19:29:00,68.0,56.2,29.90,N/A,-737280,0.0,-999.0,66,0.00,,,0.00,Wunderground v.1.15,2013-06-04 23:29:00,
2013-06-04 19:30:00,68.0,56.2,29.90,N/A,-737280,0.0,-999.0,66,0.00,,,0.00,Wunderground v.1.15,2013-06-04 23:30:00,
2013-06-04 19:31:00,68.0,56.2,29.90,N/A,-737280,0.0,-999.0,66,0.00,,,0.00,Wunderground v.1.15,2013-06-04 23:31:00,
2013-06-04 19:34:00,68.0,56.2,29.90,N/A,-737280,0.0,-999.0,66,0.00,,,0.00,Wunderground v.1.15,2013-06-04 23:34:00,
2013-06-04 19:35:00,67.5,57.4,29.90,N/A,-737280,0.0,-999.0,70,0.00,,,0.00,Wunderground v.1.15,2013-06-04 23:35:00,
2013-06-04 19:36:00,67.5,57.4,29.90,N/A,-737280,0.0,-999.0,70,0.00,,,0.00,Wunderground v.1.15,2013-06-04 23:36:00,
2013-06-04 19:39:00,67.5,57.4,29.90,N/A,-737280,0.0,-999.0,70,0.00,,,0.00,Wunderground v.1.15,2013-06-04 23:39:00,
2013-06-04 19:40:00,67.5,57.4,29.90,N/A,-737280,0.0,-999.0,70,0.00,,,0.00,Wunderground v.1.15,2013-06-04 23:40:00,
2013-06-04 19:41:00,67.5,57.4,29.90,N/A,-737280,0.0,-999.0,70,0.00,,,0.00,Wunderground v.1.15,2013-06-04 23:41:00,
2013-06-04 19:44:00,67.5,57.4,29.90,N/A,-737280,0.0,-999.0,70,0.00,,,0.00,Wunderground v.1.15,2013-06-04 23:44:00,
2013-06-04 19:45:00,67.0,58.4,29.84,N/A,-737280,0.0,-999.0,74,0.00,,,0.00,Wunderground v.1.15,2013-06-04 23:45:00,
2013-06-04 19:46:00,67.0,58.4,29.84,N/A,-737280,0.0,-999.0,74,0.00,,,0.00,Wunderground v.1.15,2013-06-04 23:46:00,
2013-06-04 19:49:00,67.0,58.4,29.84,N/A,-737280,0.0,-999.0,74,0.00,,,0.00,Wunderground v.1.15,2013-06-04 23:49:00,
2013-06-04 19:50:00,67.0,58.4,29.84,N/A,-737280,0.0,-999.0,74,0.00,,,0.00,Wunderground v.1.15,2013-06-04 23:50:00,
2013-06-04 19:51:00,67.0,58.4,29.84,N/A,-737280,0.0,-999.0,74,0.00,,,0.00,Wunderground v.1.15,2013-06-04 23:51:00,
2013-06-04 19:54:00,67.0,58.4,29.84,N/A,-737280,0.0,-999.0,74,0.00,,,0.00,Wunderground v.1.15,2013-06-04 23:54:00,
2013-06-04 19:55:00,66.1,57.9,30.08,N/A,-737280,0.0,-999.0,75,0.00,,,0.00,Wunderground v.1.15,2013-06-04 23:55:00,
2013-06-04 19:56:00,66.1,57.9,30.08,N/A,-737280,0.0,-999.0,75,0.00,,,0.00,Wunderground v.1.15,2013-06-04 23:56:00,
2013-06-04 19:59:00,66.1,57.9,30.08,N/A,-737280,0.0,-999.0,75,0.00,,,0.00,Wunderground v.1.15,2013-06-04 23:59:00,
2013-06-04 20:00:00,66.1,57.9,30.08,N/A,-737280,0.0,-999.0,75,0.00,,,0.00,Wunderground v.1.15,2013-06-05 00:00:00,
2013-06-04 20:01:00,66.1,57.9,30.08,N/A,-737280,0.0,-999.0,75,0.00,,,0.00,Wunderground v.1.15,2013-06-05 00:01:00,
2013-06-04 20:04:00,66.1,57.9,30.08,N/A,-737280,0.0,-999.0,75,0.00,,,0.00,Wunderground v.1.15,2013-06-05 00:04:00,
2013-06-04 20:05:00,65.4,57.6,30.06,WSW,248,0.0,-999.0,76,0.00,,,0.00,Wunderground v.1.15,2013-06-05 00:05:00,
2013-06-04 20:06:00,65.4,57.6,30.06,WSW,248,0.0,-999.0,76,0.00,,,0.00,Wunderground v.1.15,2013-06-05 00:06:00,
2013-06-04 20:09:00,65.4,57.6,30.06,WSW,248,0.0,-999.0,76,0.00,,,0.00,Wunderground v.1.15,2013-06-05 00:09:00,
2013-06-04 20:10:00,65.4,57.6,30.06,WSW,248,0.0,-999.0,76,0.00,,,0.00,Wunderground v.1.15,2013-06-05 00:10:00,
2013-06-04 20:11:00,65.4,57.6,30.06,WSW,248,0.0,-999.0,76,0.00,,,0.00,Wunderground v.1.15,2013-06-05 00:11:00,
2013-06-04 20:14:00,65.4,57.6,30.06,WSW,248,0.0,-999.0,76,0.00,,,0.00,Wunderground v.1.15,2013-06-05 00:14:00,
2013-06-04 20:15:00,64.7,57.3,30.08,WSW,248,0.0,-999.0,77,0.00,,,0.00,Wunderground v.1.15,2013-06-05 00:15:00,
2013-06-04 20:16:00,64.7,57.3,30.08,WSW,248,0.0,-999.0,77,0.00,,,0.00,Wunderground v.1.15,2013-06-05 00:16:00,
2013-06-04 20:19:00,64.7,57.3,30.08,WSW,248,0.0,-999.0,77,0.00,,,0.00,Wunderground v.1.15,2013-06-05 00:19:00,
2013-06-04 20:20:00,64.7,57.3,30.08,WSW,248,0.0,-999.0,77,0.00,,,0.00,Wunderground v.1.15,2013-06-05 00:20:00,
2013-06-04 20:21:00,64.7,57.3,30.08,WSW,248,0.0,-999.0,77,0.00,,,0.00,Wunderground v.1.15,2013-06-05 00:21:00,
2013-06-04 20:24:00,64.7,57.3,30.08,WSW,248,0.0,-999.0,77,0.00,,,0.00,Wunderground v.1.15,2013-06-05 00:24:00,
2013-06-04 20:25:00,63.6,56.3,30.08,WSW,248,0.0,-999.0,77,0.00,,,0.00,Wunderground v.1.15,2013-06-05 00:25:00,
2013-06-04 20:26:00,63.6,56.3,30.08,WSW,248,0.0,-999.0,77,0.00,,,0.00,Wunderground v.1.15,2013-06-05 00:26:00,
2013-06-04 20:29:00,63.6,56.3,30.08,WSW,248,0.0,-999.0,77,0.00,,,0.00,Wunderground v.1.15,2013-06-05 00:29:00,
2013-06-04 20:30:00,63.6,56.3,30.08,WSW,248,0.0,-999.0,77,0.00,,,0.00,Wunderground v.1.15,2013-06-05 00:30:00,
2013-06-04 20:31:00,63.6,56.3,30.08,WSW,248,0.0,-999.0,77,0.00,,,0.00,Wunderground v.1.15,2013-06-05 00:31:00,
2013-06-04 20:34:00,63.6,56.3,30.08,WSW,248,0.0,-999.0,77,0.00,,,0.00,Wunderground v.1.15,2013-06-05 00:34:00,
2013-06-04 20:35:00,62.7,56.1,30.08,WSW,248,0.0,-999.0,79,0.00,,,0.00,Wunderground v.1.15,2013-06-05 00:35:00,
2013-06-04 20:36:00,62.7,56.1,30.08,WSW,248,0.0,-999.0,79,0.00,,,0.00,Wunderground v.1.15,2013-06-05 00:36:00,
2013-06-04 20:39:00,62.7,56.1,30.08,WSW,248,0.0,-999.0,79,0.00,,,0.00,Wunderground v.1.15,2013-06-05 00:39:00,
2013-06-04 20:40:00,62.7,56.1,30.08,WSW,248,0.0,-999.0,79,0.00,,,0.00,Wunderground v.1.15,2013-06-05 00:40:00,
2013-06-04 20:41:00,62.7,56.1,30.08,WSW,248,0.0,-999.0,79,0.00,,,0.00,Wunderground v.1.15,2013-06-05 00:41:00,
2013-06-04 20:44:00,62.7,56.1,30.08,WSW,248,0.0,-999.0,79,0.00,,,0.00,Wunderground v.1.15,2013-06-05 00:44:00,
2013-06-04 20:45:00,61.6,55.4,30.08,N/A,-737280,0.0,-999.0,80,0.00,,,0.00,Wunderground v.1.15,2013-06-05 00:45:00,
2013-06-04 20:46:00,61.6,55.4,30.08,N/A,-737280,0.0,-999.0,80,0.00,,,0.00,Wunderground v.1.15,2013-06-05 00:46:00,
2013-06-04 20:49:00,61.6,55.4,30.08,N/A,-737280,0.0,-999.0,80,0.00,,,0.00,Wunderground v.1.15,2013-06-05 00:49:00,
2013-06-04 20:50:00,61.6,55.4,30.08,N/A,-737280,0.0,-999.0,80,0.00,,,0.00,Wunderground v.1.15,2013-06-05 00:50:00,
2013-06-04 20:51:00,61.6,55.4,30.08,N/A,-737280,0.0,-999.0,80,0.00,,,0.00,Wunderground v.1.15,2013-06-05 00:51:00,
2013-06-04 20:54:00,61.6,55.4,30.08,N/A,-737280,0.0,-999.0,80,0.00,,,0.00,Wunderground v.1.15,2013-06-05 00:54:00,
2013-06-04 20:55:00,60.6,54.7,30.08,N/A,-737280,0.0,-999.0,81,0.00,,,0.00,Wunderground v.1.15,2013-06-05 00:55:00,
2013-06-04 20:56:00,60.6,54.7,30.08,N/A,-737280,0.0,-999.0,81,0.00,,,0.00,Wunderground v.1.15,2013-06-05 00:56:00,
2013-06-04 20:59:00,60.6,54.7,30.08,N/A,-737280,0.0,-999.0,81,0.00,,,0.00,Wunderground v.1.15,2013-06-05 00:59:00,
2013-06-04 21:00:00,60.6,54.7,30.08,N/A,-737280,0.0,-999.0,81,0.00,,,0.00,Wunderground v.1.15,2013-06-05 01:00:00,
2013-06-04 21:01:00,60.6,54.7,30.08,N/A,-737280,0.0,-999.0,81,0.00,,,0.00,Wunderground v.1.15,2013-06-05 01:01:00,
2013-06-04 21:04:00,60.6,54.7,30.08,N/A,-737280,0.0,-999.0,81,0.00,,,0.00,Wunderground v.1.15,2013-06-05 01:04:00,
2013-06-04 21:05:00,59.7,53.9,30.08,WSW,248,0.0,-999.0,81,0.00,,,0.00,Wunderground v.1.15,2013-06-05 01:05:00,
2013-06-04 21:06:00,59.7,53.9,30.08,WSW,248,0.0,-999.0,81,0.00,,,0.00,Wunderground v.1.15,2013-06-05 01:06:00,
2013-06-04 21:09:00,59.7,53.9,30.08,WSW,248,0.0,-999.0,81,0.00,,,0.00,Wunderground v.1.15,2013-06-05 01:09:00,
2013-06-04 21:10:00,59.7,53.9,30.08,WSW,248,0.0,-999.0,81,0.00,,,0.00,Wunderground v.1.15,2013-06-05 01:10:00,
2013-06-04 21:11:00,59.7,53.9,30.08,WSW,248,0.0,-999.0,81,0.00,,,0.00,Wunderground v.1.15,2013-06-05 01:11:00,
2013-06-04 21:14:00,59.7,53.9,30.08,WSW,248,0.0,-999.0,81,0.00,,,0.00,Wunderground v.1.15,2013-06-05 01:14:00,
2013-06-04 21:15:00,59.0,53.5,30.09,N/A,-737280,0.0,-999.0,82,0.00,,,0.00,Wunderground v.1.15,2013-06-05 01:15:00,
2013-06-04 21:16:00,59.0,53.5,30.09,N/A,-737280,0.0,-999.0,82,0.00,,,0.00,Wunderground v.1.15,2013-06-05 01:16:00,
2013-06-04 21:19:00,59.0,53.5,30.09,N/A,-737280,0.0,-999.0,82,0.00,,,0.00,Wunderground v.1.15,2013-06-05 01:19:00,
2013-06-04 21:20:00,59.0,53.5,30.09,N/A,-737280,0.0,-999.0,82,0.00,,,0.00,Wunderground v.1.15,2013-06-05 01:20:00,
2013-06-04 21:21:00,59.0,53.5,30.09,N/A,-737280,0.0,-999.0,82,0.00,,,0.00,Wunderground v.1.15,2013-06-05 01:21:00,
2013-06-04 21:24:00,59.0,53.5,30.09,N/A,-737280,0.0,-999.0,82,0.00,,,0.00,Wunderground v.1.15,2013-06-05 01:24:00,
2013-06-04 21:25:00,58.6,53.1,30.09,N/A,-737280,0.0,-999.0,82,0.00,,,0.00,Wunderground v.1.15,2013-06-05 01:25:00,
2013-06-04 21:26:00,58.6,53.1,30.09,N/A,-737280,0.0,-999.0,82,0.00,,,0.00,Wunderground v.1.15,2013-06-05 01:26:00,
2013-06-04 21:29:00,58.6,53.1,30.09,N/A,-737280,0.0,-999.0,82,0.00,,,0.00,Wunderground v.1.15,2013-06-05 01:29:00,
2013-06-04 21:30:00,58.6,53.1,30.09,N/A,-737280,0.0,-999.0,82,0.00,,,0.00,Wunderground v.1.15,2013-06-05 01:30:00,
2013-06-04 21:31:00,58.6,53.1,30.09,N/A,-737280,0.0,-999.0,82,0.00,,,0.00,Wunderground v.1.15,2013-06-05 01:31:00,
2013-06-04 21:34:00,58.6,53.1,30.09,N/A,-737280,0.0,-999.0,82,0.00,,,0.00,Wunderground v.1.15,2013-06-05 01:34:00,
2013-06-04 21:35:00,58.0,52.9,30.10,N/A,-737280,0.0,-999.0,83,0.00,,,0.00,Wunderground v.1.15,2013-06-05 01:35:00,
2013-06-04 21:36:00,58.0,52.9,30.10,N/A,-737280,0.0,-999.0,83,0.00,,,0.00,Wunderground v.1.15,2013-06-05 01:36:00,
2013-06-04 21:39:00,58.0,52.9,30.10,N/A,-737280,0.0,-999.0,83,0.00,,,0.00,Wunderground v.1.15,2013-06-05 01:39:00,
2013-06-04 21:40:00,58.0,52.9,30.10,N/A,-737280,0.0,-999.0,83,0.00,,,0.00,Wunderground v.1.15,2013-06-05 01:40:00,
2013-06-04 21:41:00,58.0,52.9,30.10,N/A,-737280,0.0,-999.0,83,0.00,,,0.00,Wunderground v.1.15,2013-06-05 01:41:00,
2013-06-04 21:44:00,58.0,52.9,30.10,N/A,-737280,0.0,-999.0,83,0.00,,,0.00,Wunderground v.1.15,2013-06-05 01:44:00,
2013-06-04 21:45:00,57.6,52.5,30.10,WSW,248,0.0,-999.0,83,0.00,,,0.00,Wunderground v.1.15,2013-06-05 01:45:00,
2013-06-04 21:46:00,57.6,52.5,30.10,WSW,248,0.0,-999.0,83,0.00,,,0.00,Wunderground v.1.15,2013-06-05 01:46:00,
2013-06-04 21:49:00,57.6,52.5,30.10,WSW,248,0.0,-999.0,83,0.00,,,0.00,Wunderground v.1.15,2013-06-05 01:49:00,
2013-06-04 21:50:00,57.6,52.5,30.10,WSW,248,0.0,-999.0,83,0.00,,,0.00,Wunderground v.1.15,2013-06-05 01:50:00,
2013-06-04 21:51:00,57.6,52.5,30.10,WSW,248,0.0,-999.0,83,0.00,,,0.00,Wunderground v.1.15,2013-06-05 01:51:00,
2013-06-04 21:54:00,57.6,52.5,30.10,WSW,248,0.0,-999.0,83,0.00,,,0.00,Wunderground v.1.15,2013-06-05 01:54:00,
2013-06-04 21:55:00,57.3,52.2,30.11,N/A,-737280,0.0,-999.0,83,0.00,,,0.00,Wunderground v.1.15,2013-06-05 01:55:00,
2013-06-04 21:56:00,57.3,52.2,30.11,N/A,-737280,0.0,-999.0,83,0.00,,,0.00,Wunderground v.1.15,2013-06-05 01:56:00,
2013-06-04 21:59:00,57.3,52.2,30.11,N/A,-737280,0.0,-999.0,83,0.00,,,0.00,Wunderground v.1.15,2013-06-05 01:59:00,
2013-06-04 22:00:00,57.3,52.2,30.11,N/A,-737280,0.0,-999.0,83,0.00,,,0.00,Wunderground v.1.15,2013-06-05 02:00:00,
2013-06-04 22:01:00,57.3,52.2,30.11,N/A,-737280,0.0,-999.0,83,0.00,,,0.00,Wunderground v.1.15,2013-06-05 02:01:00,
2013-06-04 22:04:00,57.3,52.2,30.11,N/A,-737280,0.0,-999.0,83,0.00,,,0.00,Wunderground v.1.15,2013-06-05 02:04:00,
2013-06-04 22:05:00,56.9,52.1,30.11,N/A,-737280,0.0,-999.0,84,0.00,,,0.00,Wunderground v.1.15,2013-06-05 02:05:00,
2013-06-04 22:06:00,56.9,52.1,30.11,N/A,-737280,0.0,-999.0,84,0.00,,,0.00,Wunderground v.1.15,2013-06-05 02:06:00,
2013-06-04 22:09:00,56.9,52.1,30.11,N/A,-737280,0.0,-999.0,84,0.00,,,0.00,Wunderground v.1.15,2013-06-05 02:09:00,
2013-06-04 22:10:00,56.9,52.1,30.11,N/A,-737280,0.0,-999.0,84,0.00,,,0.00,Wunderground v.1.15,2013-06-05 02:10:00,
2013-06-04 22:11:00,56.9,52.1,30.11,N/A,-737280,0.0,-999.0,84,0.00,,,0.00,Wunderground v.1.15,2013-06-05 02:11:00,
2013-06-04 22:14:00,56.9,52.1,30.11,N/A,-737280,0.0,-999.0,84,0.00,,,0.00,Wunderground v.1.15,2013-06-05 02:14:00,
2013-06-04 22:15:00,56.6,52.1,30.11,N/A,-737280,0.0,-999.0,85,0.00,,,0.00,Wunderground v.1.15,2013-06-05 02:15:00,
2013-06-04 22:16:00,56.6,52.1,30.11,N/A,-737280,0.0,-999.0,85,0.00,,,0.00,Wunderground v.1.15,2013-06-05 02:16:00,
2013-06-04 22:19:00,56.6,52.1,30.11,N/A,-737280,0.0,-999.0,85,0.00,,,0.00,Wunderground v.1.15,2013-06-05 02:19:00,
2013-06-04 22:20:00,56.6,52.1,30.11,N/A,-737280,0.0,-999.0,85,0.00,,,0.00,Wunderground v.1.15,2013-06-05 02:20:00,
2013-06-04 22:21:00,56.6,52.1,30.11,N/A,-737280,0.0,-999.0,85,0.00,,,0.00,Wunderground v.1.15,2013-06-05 02:21:00,
2013-06-04 22:24:00,56.6,52.1,30.11,N/A,-737280,0.0,-999.0,85,0.00,,,0.00,Wunderground v.1.15,2013-06-05 02:24:00,
2013-06-04 22:25:00,56.2,51.7,30.11,N/A,-737280,0.0,-999.0,85,0.00,,,0.00,Wunderground v.1.15,2013-06-05 02:25:00,
2013-06-04 22:26:00,56.2,51.7,30.11,N/A,-737280,0.0,-999.0,85,0.00,,,0.00,Wunderground v.1.15,2013-06-05 02:26:00,
2013-06-04 22:29:00,56.2,51.7,30.11,N/A,-737280,0.0,-999.0,85,0.00,,,0.00,Wunderground v.1.15,2013-06-05 02:29:00,
2013-06-04 22:30:00,56.2,51.7,30.11,N/A,-737280,0.0,-999.0,85,0.00,,,0.00,Wunderground v.1.15,2013-06-05 02:30:00,
2013-06-04 22:31:00,56.2,51.7,30.11,N/A,-737280,0.0,-999.0,85,0.00,,,0.00,Wunderground v.1.15,2013-06-05 02:31:00,
2013-06-04 22:34:00,56.2,51.7,30.11,N/A,-737280,0.0,-999.0,85,0.00,,,0.00,Wunderground v.1.15,2013-06-05 02:34:00,
2013-06-04 22:35:00,56.0,52.2,30.11,N/A,-737280,0.0,-999.0,87,0.00,,,0.00,Wunderground v.1.15,2013-06-05 02:35:00,
2013-06-04 22:36:00,56.0,52.2,30.11,N/A,-737280,0.0,-999.0,87,0.00,,,0.00,Wunderground v.1.15,2013-06-05 02:36:00,
2013-06-04 22:39:00,56.0,52.2,30.11,N/A,-737280,0.0,-999.0,87,0.00,,,0.00,Wunderground v.1.15,2013-06-05 02:39:00,
2013-06-04 22:40:00,56.0,52.2,30.11,N/A,-737280,0.0,-999.0,87,0.00,,,0.00,Wunderground v.1.15,2013-06-05 02:40:00,
2013-06-04 22:41:00,56.0,52.2,30.11,N/A,-737280,0.0,-999.0,87,0.00,,,0.00,Wunderground v.1.15,2013-06-05 02:41:00,
2013-06-04 22:44:00,56.0,52.2,30.11,N/A,-737280,0.0,-999.0,87,0.00,,,0.00,Wunderground v.1.15,2013-06-05 02:44:00,
2013-06-04 22:45:00,55.8,52.0,30.12,N/A,-737280,0.0,-999.0,87,0.00,,,0.00,Wunderground v.1.15,2013-06-05 02:45:00,
2013-06-04 22:46:00,55.8,52.0,30.12,N/A,-737280,0.0,-999.0,87,0.00,,,0.00,Wunderground v.1.15,2013-06-05 02:46:00,
2013-06-04 22:49:00,55.8,52.0,30.12,N/A,-737280,0.0,-999.0,87,0.00,,,0.00,Wunderground v.1.15,2013-06-05 02:49:00,
2013-06-04 22:50:00,55.8,52.0,30.12,N/A,-737280,0.0,-999.0,87,0.00,,,0.00,Wunderground v.1.15,2013-06-05 02:50:00,
2013-06-04 22:51:00,55.8,52.0,30.12,N/A,-737280,0.0,-999.0,87,0.00,,,0.00,Wunderground v.1.15,2013-06-05 02:51:00,
2013-06-04 22:54:00,55.8,52.0,30.12,N/A,-737280,0.0,-999.0,87,0.00,,,0.00,Wunderground v.1.15,2013-06-05 02:54:00,
2013-06-04 22:59:00,55.5,51.7,30.11,WSW,248,0.0,-999.0,87,0.00,,,0.00,Wunderground v.1.15,2013-06-05 02:59:00,
2013-06-04 23:04:00,55.5,51.7,30.11,WSW,248,0.0,-999.0,87,0.00,,,0.00,Wunderground v.1.15,2013-06-05 03:04:00,
2013-06-04 23:09:00,55.3,51.8,30.11,N/A,-737280,0.0,-999.0,88,0.00,,,0.00,Wunderground v.1.15,2013-06-05 03:09:00,
2013-06-04 23:14:00,55.3,51.8,30.11,N/A,-737280,0.0,-999.0,88,0.00,,,0.00,Wunderground v.1.15,2013-06-05 03:14:00,
2013-06-04 23:19:00,55.3,51.8,30.11,WSW,248,0.0,-999.0,88,0.00,,,0.00,Wunderground v.1.15,2013-06-05 03:19:00,
2013-06-04 23:24:00,55.3,51.8,30.11,WSW,248,0.0,-999.0,88,0.00,,,0.00,Wunderground v.1.15,2013-06-05 03:24:00,
2013-06-04 23:29:00,55.1,51.6,30.11,WSW,248,0.0,-999.0,88,0.00,,,0.00,Wunderground v.1.15,2013-06-05 03:29:00,
2013-06-04 23:34:00,55.1,51.6,30.11,WSW,248,0.0,-999.0,88,0.00,,,0.00,Wunderground v.1.15,2013-06-05 03:34:00,
2013-06-04 23:39:00,55.3,52.1,30.11,N/A,-737280,0.0,-999.0,89,0.00,,,0.00,Wunderground v.1.15,2013-06-05 03:39:00,
2013-06-04 23:44:00,55.3,52.1,30.11,N/A,-737280,0.0,-999.0,89,0.00,,,0.00,Wunderground v.1.15,2013-06-05 03:44:00,
2013-06-04 23:49:00,55.2,51.7,30.11,N/A,-737280,0.0,-999.0,88,0.00,,,0.00,Wunderground v.1.15,2013-06-05 03:49:00,
2013-06-04 23:54:00,55.2,51.7,30.11,N/A,-737280,0.0,-999.0,88,0.00,,,0.00,Wunderground v.1.15,2013-06-05 03:54:00,
2013-06-04 23:59:00,54.8,51.3,30.11,N/A,-737280,0.0,-999.0,88,0.00,,,0.00,Wunderground v.1.15,2013-06-05 03:59:00,